Time;durP1;ratioP1;P1;durP2;ratioP2;P2;SDS_P1;SDS_P2;PMS_P1;PMS_P2;Temp;Humidity;BMP_temperature;BMP_pressure;BME280_temperature;BME280_humidity;BME280_pressure;Samples;Min_cycle;Max_cycle;Signal;HPM_P1;HPM_P2
2023/02/23 00:01:56;;;;;;;212.73;198.30;;;7.50;93.70;;;;;;5018324;28;20181;-91
2023/02/23 00:04:25;;;;;;;207.30;193.53;;;7.50;93.70;;;;;;5020786;28;20188;-92
2023/02/23 00:06:56;;;;;;;212.27;197.60;;;7.50;93.70;;;;;;5016882;28;20255;-91
2023/02/23 00:09:23;;;;;;;211.23;196.40;;;7.50;93.80;;;;;;4999272;28;20519;-91
2023/02/23 00:11:53;;;;;;;220.93;205.93;;;7.50;93.80;;;;;;4998989;28;20185;-92
2023/02/23 00:14:20;;;;;;;208.93;194.50;;;7.50;93.80;;;;;;4998269;28;20180;-92
2023/02/23 00:16:45;;;;;;;208.87;194.47;;;7.50;93.80;;;;;;4997331;28;20193;-92
2023/02/23 00:19:12;;;;;;;205.60;191.60;;;7.40;93.70;;;;;;4997607;28;20189;-92
2023/02/23 00:21:44;;;;;;;213.27;199.13;;;7.40;93.80;;;;;;5004877;28;20596;-90
2023/02/23 00:24:46;;;;;;;204.23;190.27;;;7.30;93.80;;;;;;5016695;28;20172;-91
2023/02/23 00:28:10;;;;;;;207.70;194.20;;;7.30;93.70;;;;;;5013312;28;20220;-91
2023/02/23 00:30:55;;;;;;;212.13;197.93;;;7.20;93.80;;;;;;4912365;29;20222;-91
2023/02/23 00:37:02;;;;;;;206.07;192.30;;;7.20;93.90;;;;;;4994914;28;20267;-91
2023/02/23 00:39:28;;;;;;;198.03;184.97;;;7.20;93.90;;;;;;5000267;28;20177;-91
2023/02/23 00:41:54;;;;;;;195.13;182.23;;;7.20;93.90;;;;;;4997814;28;20288;-92
2023/02/23 00:44:22;;;;;;;197.87;184.20;;;7.20;93.90;;;;;;4997899;28;20244;-92
2023/02/23 00:46:50;;;;;;;191.63;178.97;;;7.10;93.90;;;;;;4998148;28;20706;-91
2023/02/23 00:49:16;;;;;;;208.90;195.10;;;7.10;93.90;;;;;;4996916;28;20177;-91
2023/02/23 00:52:25;;;;;;;216.20;202.20;;;7.20;93.90;;;;;;4997707;28;20177;-91
2023/02/23 01:01:09;;;;;;;241.30;225.40;;;7.10;93.90;;;;;;4986711;28;20243;-91
2023/02/23 01:04:26;;;;;;;;;;;;;;;;;;;;;
2023/02/23 01:07:38;;;;;;;229.97;214.80;;;7.20;94.00;;;;;;4989487;28;20210;-91
2023/02/23 01:14:46;;;;;;;;;;;;;;;;;;;;;
2023/02/23 01:22:26;;;;;;;257.57;240.53;;;7.10;94.10;;;;;;5036459;22;20233;-88
2023/02/23 04:20:17;;;;;;;319.83;298.27;;;6.30;95.90;;;;;;5039183;28;20157;-94
2023/02/23 04:22:48;;;;;;;330.43;308.53;;;6.30;95.90;;;;;;5021983;28;20224;-93
2023/02/23 04:25:21;;;;;;;333.77;311.73;;;6.30;95.90;;;;;;5020687;28;20200;-93
2023/02/23 04:27:50;;;;;;;331.50;309.77;;;6.30;95.90;;;;;;5022001;28;20177;-92
2023/02/23 04:30:30;;;;;;;344.80;322.43;;;6.40;96.00;;;;;;5022022;28;20173;-93
2023/02/23 04:32:58;;;;;;;341.33;317.53;;;6.30;95.90;;;;;;5022056;28;20225;-93
2023/02/23 04:35:28;;;;;;;340.17;317.13;;;6.40;96.00;;;;;;5021856;28;20253;-93
2023/02/23 04:38:00;;;;;;;342.93;320.50;;;6.40;96.00;;;;;;5022080;28;20153;-94
2023/02/23 04:40:32;;;;;;;338.60;315.70;;;6.40;96.00;;;;;;5021756;28;20157;-93
2023/02/23 04:43:01;;;;;;;336.03;313.20;;;6.30;96.00;;;;;;5021192;28;20205;-93
2023/02/23 04:45:48;;;;;;;345.03;321.70;;;6.40;96.00;;;;;;5021726;28;20182;-93
2023/02/23 04:48:26;;;;;;;352.73;329.13;;;6.40;96.10;;;;;;5021733;28;20169;-92
2023/02/23 04:50:53;;;;;;;344.67;321.13;;;6.40;96.10;;;;;;5021598;28;20180;-92
2023/02/23 04:53:19;;;;;;;343.80;320.43;;;6.40;96.10;;;;;;5021813;28;20245;-93
2023/02/23 04:55:48;;;;;;;345.57;321.90;;;6.40;96.10;;;;;;5021287;28;20205;-92
2023/02/23 04:58:14;;;;;;;341.00;318.60;;;6.40;96.10;;;;;;5021816;28;20158;-93
2023/02/23 05:00:40;;;;;;;345.70;322.00;;;6.40;96.10;;;;;;5025390;28;20185;-92
2023/02/23 05:03:11;;;;;;;348.47;324.97;;;6.50;96.10;;;;;;5025295;28;20264;-92
2023/02/23 05:05:42;;;;;;;363.03;338.40;;;6.40;96.10;;;;;;5025188;28;20261;-92
2023/02/23 05:08:11;;;;;;;355.43;331.07;;;6.50;96.20;;;;;;5024641;28;20162;-93
2023/02/23 05:10:37;;;;;;;363.43;338.67;;;6.50;96.20;;;;;;5025028;28;20184;-93
2023/02/23 05:13:06;;;;;;;373.60;346.97;;;6.50;96.20;;;;;;5024814;28;20169;-92
2023/02/23 05:15:43;;;;;;;369.50;343.43;;;6.50;96.20;;;;;;5024758;28;20204;-93
2023/02/23 05:18:20;;;;;;;370.97;344.63;;;6.60;96.20;;;;;;5024164;28;20170;-93
2023/02/23 05:20:58;;;;;;;365.97;339.80;;;6.60;96.20;;;;;;5024738;28;20158;-92
2023/02/23 05:23:26;;;;;;;368.37;343.30;;;6.50;96.20;;;;;;5024950;28;20204;-92
2023/02/23 05:26:05;;;;;;;375.73;350.13;;;6.50;96.20;;;;;;5024437;28;20221;-93
2023/02/23 05:28:32;;;;;;;366.50;342.37;;;6.50;96.20;;;;;;5024736;28;20186;-93
2023/02/23 05:31:11;;;;;;;370.63;346.23;;;6.50;96.20;;;;;;5024694;28;20177;-92
2023/02/23 05:33:46;;;;;;;373.33;347.83;;;6.50;96.20;;;;;;5024583;28;20176;-92
2023/02/23 05:36:31;;;;;;;369.30;345.37;;;6.60;96.20;;;;;;5024496;28;20193;-93
2023/02/23 05:39:11;;;;;;;360.43;337.13;;;6.60;96.20;;;;;;5024994;28;20157;-93
2023/02/23 05:41:57;;;;;;;383.53;357.50;;;6.60;96.20;;;;;;5023842;28;20197;-93
2023/02/23 05:44:28;;;;;;;391.13;365.10;;;6.60;96.20;;;;;;5024381;28;20162;-93
2023/02/23 05:46:57;;;;;;;382.77;356.43;;;6.60;96.20;;;;;;5000800;28;20211;-93
2023/02/23 05:49:37;;;;;;;382.43;355.50;;;6.60;96.30;;;;;;4984596;28;20183;-92
2023/02/23 05:52:03;;;;;;;371.40;345.60;;;6.60;96.30;;;;;;5019978;28;20174;-92
2023/02/23 05:54:38;;;;;;;377.27;350.53;;;6.60;96.30;;;;;;5024404;28;20185;-94
2023/02/23 05:57:14;;;;;;;373.93;347.27;;;6.60;96.30;;;;;;5024088;28;20228;-91
2023/02/23 06:00:21;;;;;;;375.40;348.63;;;6.60;96.30;;;;;;5024519;28;20164;-93
2023/02/23 06:03:08;;;;;;;368.53;343.33;;;6.70;96.30;;;;;;5024374;28;20232;-92
2023/02/23 06:08:57;;;;;;;372.17;345.27;;;6.70;96.30;;;;;;5000969;28;20174;-93
2023/02/23 06:17:55;;;;;;;377.07;350.23;;;6.70;96.30;;;;;;5234350;22;20220;-93
2023/02/23 06:20:21;;;;;;;380.03;352.57;;;6.70;96.30;;;;;;4988008;28;20195;-91
2023/02/23 06:22:56;;;;;;;386.77;358.77;;;6.70;96.40;;;;;;5024091;28;20197;-91
2023/02/23 06:25:49;;;;;;;;;;;;;;;;;;;;;
2023/02/23 06:28:20;;;;;;;388.53;359.00;;;6.70;96.40;;;;;;5040937;28;20157;-92
2023/02/23 06:31:21;;;;;;;370.03;341.83;;;6.70;96.40;;;;;;5023930;28;20157;-91
2023/02/23 06:33:54;;;;;;;378.27;349.63;;;6.70;96.40;;;;;;5017291;28;20213;-91
2023/02/23 08:14:58;;;;;;;424.53;380.43;;;7.00;96.50;;;;;;5542655;22;20237;-91
2023/02/23 09:11:45;;;;;;;438.53;378.90;;;7.00;96.30;;;;;;5213186;22;20213;-91
2023/02/23 09:14:10;;;;;;;447.53;386.27;;;7.10;96.30;;;;;;5010674;28;20654;-89
2023/02/23 09:16:36;;;;;;;433.73;385.67;;;7.10;96.30;;;;;;5015355;28;20177;-91
2023/02/23 09:19:02;;;;;;;427.10;376.97;;;7.10;96.20;;;;;;5021167;28;20201;-90
2023/02/23 09:21:28;;;;;;;430.97;361.80;;;7.00;96.10;;;;;;5010814;28;20189;-91
2023/02/23 09:29:40;;;;;;;424.67;350.03;;;7.00;96.00;;;;;;5027579;28;20276;-92
2023/02/23 09:32:31;;;;;;;415.40;341.43;;;6.90;95.90;;;;;;5031606;28;20252;-92
2023/02/23 09:35:00;;;;;;;408.00;317.60;;;6.90;95.80;;;;;;5229141;23;20217;-94
2023/02/23 09:50:54;;;;;;;338.27;271.13;;;7.00;95.20;;;;;;5092324;22;20248;-93
2023/02/23 09:53:31;;;;;;;321.97;256.30;;;6.90;95.00;;;;;;5024667;28;20225;-93
2023/02/23 09:56:14;;;;;;;308.53;247.63;;;6.90;95.00;;;;;;5041361;28;20220;-92
2023/02/23 10:08:44;;;;;;;250.70;205.70;;;6.70;94.40;;;;;;5534266;22;20237;-91
2023/02/23 10:19:24;;;;;;;217.53;184.80;;;6.90;93.50;;;;;;704374;22;20508;-89
2023/02/23 10:24:29;;;;;;;218.17;164.73;;;7.20;93.10;;;;;;5374769;22;20224;-91
2023/02/23 10:27:49;;;;;;;207.30;161.37;;;7.30;93.10;;;;;;5023076;28;20268;-92
2023/02/23 10:30:24;;;;;;;200.70;154.37;;;7.40;93.00;;;;;;5023389;28;20242;-92
2023/02/23 16:02:42;;;;;;;63.97;41.23;;;6.80;90.10;;;;;;4925650;22;20760;-91
2023/02/23 16:05:21;;;;;;;72.80;38.23;;;6.90;90.10;;;;;;4998389;28;20256;-91
2023/02/23 16:07:47;;;;;;;62.33;36.97;;;6.80;89.80;;;;;;5002069;28;20171;-92
2023/02/23 16:10:22;;;;;;;68.50;35.93;;;6.80;89.30;;;;;;5017596;28;20173;-91
2023/02/23 16:12:50;;;;;;;55.67;34.73;;;6.80;88.90;;;;;;4999335;28;20523;-91
2023/02/23 16:15:28;;;;;;;54.27;32.10;;;6.70;88.60;;;;;;5004528;28;20202;-92
2023/02/23 16:18:05;;;;;;;58.23;29.97;;;6.70;88.50;;;;;;5003499;28;20207;-89
2023/02/23 16:20:37;;;;;;;56.77;26.40;;;6.60;88.10;;;;;;4996041;28;20169;-90
2023/02/23 16:23:04;;;;;;;50.83;27.83;;;6.80;88.10;;;;;;4996700;28;20570;-89
2023/02/23 16:25:31;;;;;;;52.83;27.97;;;6.70;87.40;;;;;;4995949;28;20200;-89
2023/02/23 16:28:16;;;;;;;50.10;27.67;;;6.60;87.30;;;;;;4996026;28;20188;-90
2023/02/23 16:30:49;;;;;;;47.17;27.70;;;6.50;87.30;;;;;;5013603;28;20154;-90
2023/02/23 16:33:24;;;;;;;47.47;26.70;;;6.70;87.50;;;;;;5013856;28;20150;-90
2023/02/23 16:36:03;;;;;;;52.77;29.10;;;6.60;87.00;;;;;;4995832;28;20228;-89
2023/02/23 16:38:54;;;;;;;48.13;29.57;;;6.50;87.00;;;;;;5005470;28;20545;-92
2023/02/23 17:09:48;;;;;;;47.43;23.93;;;5.80;85.80;;;;;;3143626;22;20280;-93
2023/02/23 17:12:20;;;;;;;54.57;24.20;;;5.70;85.30;;;;;;4993717;28;20178;-90
2023/02/23 17:14:47;;;;;;;35.97;21.60;;;5.70;85.40;;;;;;5007547;28;20161;-92
2023/02/23 17:17:18;;;;;;;39.57;23.93;;;5.70;85.30;;;;;;4994861;28;20221;-93
2023/02/23 17:19:45;;;;;;;37.03;21.77;;;5.80;85.00;;;;;;4989518;28;20166;-91
2023/02/23 17:22:11;;;;;;;35.17;22.23;;;5.80;85.10;;;;;;4986035;28;20206;-92
2023/02/23 17:24:38;;;;;;;31.70;23.67;;;5.70;85.00;;;;;;4989820;28;20682;-92
2023/02/23 17:27:04;;;;;;;38.17;22.00;;;5.60;84.70;;;;;;4985036;28;20194;-92
2023/02/23 17:29:30;;;;;;;44.50;23.27;;;5.60;85.10;;;;;;4984329;28;20564;-92
2023/02/23 17:31:58;;;;;;;32.93;22.80;;;5.70;85.00;;;;;;4988989;28;20178;-92
2023/02/23 17:34:25;;;;;;;47.47;25.03;;;5.60;85.00;;;;;;4983531;28;20240;-90
2023/02/23 17:36:50;;;;;;;44.73;22.70;;;5.60;85.00;;;;;;4987419;28;20202;-91
2023/02/23 17:39:16;;;;;;;38.03;22.40;;;5.50;85.00;;;;;;4980923;28;20270;-91
2023/02/23 17:41:42;;;;;;;35.07;23.70;;;5.50;85.30;;;;;;4981038;28;20185;-91
2023/02/23 17:44:07;;;;;;;37.87;24.13;;;5.50;85.20;;;;;;4980786;28;20236;-92
2023/02/23 17:46:36;;;;;;;45.60;27.20;;;5.50;85.30;;;;;;4984518;28;20201;-93
2023/02/23 17:49:02;;;;;;;44.63;22.13;;;5.40;85.10;;;;;;4988683;28;20528;-92
2023/02/23 17:51:28;;;;;;;47.33;24.93;;;5.40;85.10;;;;;;4982822;28;20627;-92
2023/02/23 17:53:54;;;;;;;46.03;24.20;;;5.30;84.90;;;;;;4983720;28;20196;-92
2023/02/23 17:56:22;;;;;;;35.13;22.10;;;5.30;84.70;;;;;;5003290;28;20194;-92
2023/02/23 17:58:48;;;;;;;39.30;22.90;;;5.30;84.40;;;;;;5002463;28;20181;-92
2023/02/23 18:01:15;;;;;;;31.10;21.93;;;5.20;84.30;;;;;;4999961;28;20182;-92
2023/02/23 18:03:43;;;;;;;34.33;22.23;;;5.30;84.00;;;;;;5002137;28;20281;-92
2023/02/23 18:06:35;;;;;;;;;;;;;;;;;;;;;
2023/02/23 18:09:04;;;;;;;42.33;24.50;;;5.20;84.40;;;;;;5016913;28;20456;-91
2023/02/23 18:11:32;;;;;;;38.77;25.23;;;5.10;84.70;;;;;;4990474;28;20245;-92
2023/02/23 18:13:58;;;;;;;42.13;23.97;;;5.10;84.90;;;;;;4984537;28;20220;-91
2023/02/23 18:16:24;;;;;;;38.47;20.67;;;5.10;85.00;;;;;;4981060;28;20194;-91
2023/02/23 18:18:50;;;;;;;39.70;21.10;;;5.00;84.50;;;;;;4981625;28;20186;-91
2023/02/23 18:21:19;;;;;;;37.63;21.40;;;5.00;84.30;;;;;;4981627;28;20324;-91
2023/02/23 18:23:44;;;;;;;37.73;21.67;;;4.90;84.40;;;;;;4980592;28;20217;-91
2023/02/23 18:26:22;;;;;;;35.33;18.87;;;4.80;84.20;;;;;;4980684;28;20210;-92
2023/02/23 18:28:48;;;;;;;37.17;17.90;;;4.80;84.00;;;;;;4981073;28;20216;-92
2023/02/23 18:31:20;;;;;;;38.83;20.20;;;4.80;83.80;;;;;;4981006;28;20594;-91
2023/02/23 18:33:51;;;;;;;32.70;20.50;;;4.70;83.70;;;;;;4980620;28;20212;-91
2023/02/23 18:36:25;;;;;;;35.93;19.60;;;4.50;83.70;;;;;;4980525;28;20209;-91
2023/02/23 18:38:51;;;;;;;28.53;19.40;;;4.50;83.90;;;;;;4979983;28;20181;-91
2023/02/23 18:41:19;;;;;;;28.03;19.77;;;4.40;84.10;;;;;;4980773;28;20192;-92
2023/02/23 18:43:52;;;;;;;26.57;16.40;;;4.30;84.20;;;;;;4984663;28;20278;-91
2023/02/23 18:46:18;;;;;;;28.23;19.47;;;4.30;84.40;;;;;;4978729;28;20202;-91
2023/02/23 18:48:43;;;;;;;35.13;24.60;;;4.10;84.50;;;;;;4978853;28;20186;-91
2023/02/23 18:51:13;;;;;;;37.40;24.87;;;4.10;84.70;;;;;;4979203;28;20177;-91
2023/02/23 18:53:38;;;;;;;34.30;19.00;;;4.10;84.90;;;;;;4980185;28;20189;-91
2023/02/23 18:56:10;;;;;;;28.90;18.83;;;4.10;85.20;;;;;;4978800;28;20197;-90
2023/02/23 18:58:36;;;;;;;28.00;22.93;;;4.00;85.40;;;;;;4978764;28;20177;-91
2023/02/23 19:01:16;;;;;;;32.43;22.10;;;4.00;85.50;;;;;;4978345;28;20180;-90
2023/02/23 19:03:43;;;;;;;37.03;20.57;;;4.00;85.80;;;;;;4979567;28;20193;-92
2023/02/23 19:06:09;;;;;;;31.57;21.13;;;3.90;85.80;;;;;;4978478;28;20201;-90
2023/02/23 19:08:35;;;;;;;34.07;19.13;;;3.90;85.70;;;;;;4979546;28;20208;-92
2023/02/23 19:11:01;;;;;;;33.60;19.80;;;3.80;85.60;;;;;;4980048;28;20273;-91
2023/02/23 19:13:27;;;;;;;34.60;18.50;;;3.90;85.60;;;;;;4979237;28;20719;-91
2023/02/23 19:15:52;;;;;;;28.53;19.10;;;3.80;85.50;;;;;;4980877;28;20198;-92
2023/02/23 19:18:21;;;;;;;28.23;20.97;;;3.80;85.50;;;;;;4984396;28;20173;-91
2023/02/23 19:20:51;;;;;;;34.20;19.93;;;3.70;85.50;;;;;;4978579;28;20180;-90
2023/02/23 19:23:18;;;;;;;31.20;17.87;;;3.70;85.30;;;;;;4977806;28;20205;-91
2023/02/23 19:25:47;;;;;;;34.73;21.83;;;3.70;85.50;;;;;;4985072;28;20204;-92
2023/02/23 19:28:14;;;;;;;30.47;18.30;;;3.70;85.60;;;;;;4982818;28;20179;-88
2023/02/23 19:30:46;;;;;;;33.93;22.07;;;3.70;85.70;;;;;;4979083;28;20184;-92
2023/02/23 19:33:13;;;;;;;30.10;18.70;;;3.70;85.70;;;;;;4997071;28;20240;-92
2023/02/23 19:35:39;;;;;;;34.43;22.03;;;3.80;85.90;;;;;;4980381;28;20748;-91
2023/02/23 19:38:05;;;;;;;34.83;18.80;;;3.70;86.00;;;;;;4979015;28;20189;-91
2023/02/23 19:40:31;;;;;;;27.00;21.17;;;3.80;86.20;;;;;;4977908;28;20185;-91
2023/02/23 19:42:56;;;;;;;28.20;18.87;;;3.80;86.20;;;;;;4977933;28;20205;-90
2023/02/23 19:45:23;;;;;;;33.50;19.93;;;3.80;86.30;;;;;;4977231;28;20691;-90
2023/02/23 19:47:53;;;;;;;32.60;23.13;;;3.80;86.20;;;;;;4977329;28;20663;-90
2023/02/23 19:50:19;;;;;;;35.33;22.67;;;3.80;86.30;;;;;;4995301;28;20178;-92
2023/02/23 19:52:45;;;;;;;28.90;21.33;;;3.80;86.30;;;;;;4978512;28;20191;-92
2023/02/23 19:55:11;;;;;;;25.73;21.00;;;3.80;86.30;;;;;;4979393;28;20274;-91
2023/02/23 19:57:40;;;;;;;32.60;22.37;;;3.80;86.30;;;;;;4977602;28;20182;-90
2023/02/23 20:00:10;;;;;;;27.07;17.67;;;3.80;86.10;;;;;;4977485;28;20188;-91
2023/02/23 20:02:41;;;;;;;32.07;21.17;;;3.80;85.90;;;;;;4978640;28;20238;-91
2023/02/23 20:05:11;;;;;;;32.77;21.03;;;3.90;85.80;;;;;;4977431;28;20650;-91
2023/02/23 20:07:37;;;;;;;32.43;20.47;;;3.90;85.80;;;;;;4977970;28;20173;-91
2023/02/23 20:10:04;;;;;;;28.93;20.30;;;3.90;85.70;;;;;;4994919;28;20197;-91
2023/02/23 20:12:31;;;;;;;30.43;19.40;;;3.90;85.20;;;;;;4995271;28;20186;-91
2023/02/23 20:14:57;;;;;;;26.00;16.60;;;4.00;85.00;;;;;;4977396;28;20187;-91
2023/02/23 20:17:23;;;;;;;19.37;16.33;;;4.00;84.40;;;;;;4995410;28;20176;-91
2023/02/23 20:19:48;;;;;;;34.13;16.80;;;4.00;84.30;;;;;;4979116;28;20181;-91
2023/02/23 20:22:14;;;;;;;32.97;18.47;;;4.10;83.80;;;;;;4995320;28;20420;-91
2023/02/23 20:24:40;;;;;;;22.70;15.93;;;4.10;83.60;;;;;;4979691;28;20636;-91
2023/02/23 20:27:05;;;;;;;24.93;15.47;;;4.10;83.50;;;;;;4979005;28;20274;-91
2023/02/23 20:29:32;;;;;;;28.80;16.37;;;4.20;83.00;;;;;;4979903;28;20169;-91
2023/02/23 20:31:59;;;;;;;27.87;16.10;;;4.10;82.80;;;;;;4980404;28;20251;-91
2023/02/23 20:34:26;;;;;;;22.47;15.20;;;4.20;82.40;;;;;;4980696;28;20241;-91
2023/02/23 20:36:55;;;;;;;20.20;14.20;;;4.20;82.30;;;;;;4979614;28;20706;-91
2023/02/23 20:39:23;;;;;;;22.03;14.37;;;4.30;82.40;;;;;;4978840;28;20271;-92
2023/02/23 20:41:52;;;;;;;20.83;14.03;;;4.30;82.00;;;;;;4979036;28;20170;-91
2023/02/23 20:44:22;;;;;;;26.47;14.20;;;4.30;81.80;;;;;;4979257;28;20298;-91
2023/02/23 20:46:48;;;;;;;24.93;13.93;;;4.30;80.90;;;;;;5004821;28;20260;-89
2023/02/23 20:49:17;;;;;;;26.17;14.13;;;4.40;80.90;;;;;;5005359;28;20205;-92
2023/02/23 20:51:45;;;;;;;22.13;14.50;;;4.40;80.20;;;;;;4984485;28;20216;-92
2023/02/23 20:54:24;;;;;;;25.30;13.83;;;4.40;80.10;;;;;;4991227;28;20228;-92
2023/02/23 20:56:57;;;;;;;20.83;14.13;;;4.50;79.90;;;;;;4986783;28;20267;-91
2023/02/23 20:59:29;;;;;;;15.93;14.33;;;4.50;79.40;;;;;;4978858;28;20162;-90
2023/02/23 21:01:55;;;;;;;19.27;14.53;;;4.50;79.40;;;;;;4979257;28;20169;-91
2023/02/23 21:04:21;;;;;;;29.10;15.10;;;4.40;79.60;;;;;;5002672;28;20292;-91
2023/02/23 21:06:47;;;;;;;18.30;14.93;;;4.50;79.70;;;;;;4981356;28;20202;-91
2023/02/23 21:09:18;;;;;;;18.03;13.80;;;4.50;80.10;;;;;;4978510;28;20248;-91
2023/02/23 21:11:46;;;;;;;22.00;14.30;;;4.50;80.20;;;;;;4978483;28;20171;-91
2023/02/23 21:14:12;;;;;;;17.90;14.83;;;4.50;80.00;;;;;;4977927;28;20560;-91
2023/02/23 21:16:43;;;;;;;24.83;15.10;;;4.40;80.40;;;;;;4978951;28;20209;-91
2023/02/23 21:19:10;;;;;;;18.40;14.73;;;4.50;80.50;;;;;;4978020;28;20173;-91
2023/02/23 21:21:45;;;;;;;23.77;14.70;;;4.40;80.60;;;;;;4977429;28;20200;-91
2023/02/23 21:24:13;;;;;;;17.30;13.70;;;4.40;81.10;;;;;;4978123;28;20213;-91
2023/02/23 21:26:39;;;;;;;19.87;14.37;;;4.40;81.20;;;;;;4977692;28;20198;-91
2023/02/23 21:29:13;;;;;;;18.70;14.00;;;4.30;80.20;;;;;;4978279;28;20192;-91
2023/02/23 21:31:41;;;;;;;18.57;14.67;;;4.40;79.60;;;;;;4979138;28;20180;-90
2023/02/23 21:34:08;;;;;;;19.67;14.83;;;4.40;79.80;;;;;;4977391;28;20197;-91
2023/02/23 21:36:34;;;;;;;19.40;14.63;;;4.30;79.80;;;;;;4978614;28;20749;-91
2023/02/23 21:39:00;;;;;;;16.93;13.93;;;4.30;79.00;;;;;;4977812;28;20702;-91
2023/02/23 21:41:32;;;;;;;16.03;14.40;;;4.40;78.80;;;;;;4979169;28;20279;-91
2023/02/23 21:43:58;;;;;;;17.97;15.17;;;4.30;78.00;;;;;;4983489;28;20205;-92
2023/02/23 21:46:23;;;;;;;16.23;14.70;;;4.40;77.30;;;;;;4982839;28;20200;-91
2023/02/23 21:48:49;;;;;;;17.63;14.87;;;4.40;77.50;;;;;;4983154;28;20184;-91
2023/02/23 21:51:15;;;;;;;17.30;15.17;;;4.40;77.80;;;;;;4979476;28;20178;-89
2023/02/23 21:53:43;;;;;;;18.33;14.67;;;4.30;78.30;;;;;;4979699;28;20674;-89
2023/02/23 21:56:13;;;;;;;20.00;13.93;;;4.40;78.50;;;;;;4979316;28;20202;-91
2023/02/23 21:58:46;;;;;;;20.80;14.23;;;4.40;78.90;;;;;;4980159;28;20189;-90
2023/02/23 22:01:13;;;;;;;15.80;13.77;;;4.40;78.80;;;;;;4979614;28;20257;-90
2023/02/23 22:03:43;;;;;;;15.13;13.63;;;4.40;78.50;;;;;;4979103;28;20220;-90
2023/02/23 22:06:15;;;;;;;24.60;15.70;;;4.40;78.60;;;;;;4979300;28;20204;-89
2023/02/23 22:08:50;;;;;;;15.70;13.37;;;4.40;78.50;;;;;;4979426;28;20628;-89
2023/02/23 22:11:18;;;;;;;15.40;13.67;;;4.40;78.90;;;;;;4979083;28;20624;-89
2023/02/23 22:13:46;;;;;;;14.47;13.03;;;4.40;78.60;;;;;;4979203;28;20283;-90
2023/02/23 22:16:14;;;;;;;16.90;12.93;;;4.40;78.80;;;;;;4978921;28;20208;-90
2023/02/23 22:18:40;;;;;;;16.07;13.30;;;4.30;79.20;;;;;;4979048;28;20182;-90
2023/02/23 22:21:11;;;;;;;14.33;12.70;;;4.30;79.90;;;;;;4979101;28;20194;-89
2023/02/23 22:23:37;;;;;;;18.03;13.43;;;4.30;80.40;;;;;;4978787;28;20201;-89
2023/02/23 22:26:03;;;;;;;20.60;13.33;;;4.30;80.20;;;;;;4978664;28;20202;-89
2023/02/23 22:28:33;;;;;;;16.27;13.70;;;4.30;80.40;;;;;;4978756;28;20268;-90
2023/02/23 22:31:07;;;;;;;16.27;13.50;;;4.30;80.80;;;;;;4979081;28;20220;-90
2023/02/23 22:33:34;;;;;;;19.27;13.53;;;4.30;80.80;;;;;;4978788;28;20169;-89
2023/02/23 22:36:00;;;;;;;16.10;13.17;;;4.30;81.20;;;;;;4978966;28;20680;-89
2023/02/23 22:38:26;;;;;;;19.30;13.70;;;4.30;81.60;;;;;;4984125;28;20702;-90
2023/02/23 22:40:54;;;;;;;14.87;13.40;;;4.30;81.40;;;;;;4978841;28;20185;-90
2023/02/23 22:43:20;;;;;;;15.07;13.50;;;4.30;81.50;;;;;;4978624;28;20220;-90
2023/02/23 22:45:47;;;;;;;19.63;13.40;;;4.30;80.70;;;;;;4978411;28;20294;-90
2023/02/23 22:48:13;;;;;;;19.97;13.27;;;4.30;80.60;;;;;;4978696;28;20219;-90
2023/02/23 22:50:41;;;;;;;14.73;12.30;;;4.30;81.20;;;;;;4978539;28;20201;-90
2023/02/23 22:53:06;;;;;;;16.57;12.90;;;4.30;82.50;;;;;;4978003;28;20178;-90
2023/02/23 22:55:33;;;;;;;17.87;12.97;;;4.30;82.80;;;;;;4978445;28;20623;-90
2023/02/23 22:58:00;;;;;;;15.03;13.50;;;4.20;83.70;;;;;;4979387;28;20257;-89
2023/02/23 23:00:27;;;;;;;17.43;12.70;;;4.20;84.20;;;;;;4978244;28;20272;-90
2023/02/23 23:02:54;;;;;;;17.47;12.37;;;4.20;84.30;;;;;;4979229;28;20204;-88
2023/02/23 23:05:20;;;;;;;28.63;14.10;;;4.20;84.30;;;;;;4978127;28;20256;-91
2023/02/23 23:07:46;;;;;;;14.97;13.50;;;4.10;84.40;;;;;;4977944;28;20530;-90
2023/02/23 23:10:13;;;;;;;21.40;13.03;;;4.10;84.30;;;;;;4978252;28;20203;-89
2023/02/23 23:12:39;;;;;;;14.10;12.67;;;4.10;84.30;;;;;;4978153;28;20174;-90
2023/02/23 23:15:06;;;;;;;14.57;13.17;;;4.10;84.50;;;;;;4978571;28;20190;-89
2023/02/23 23:17:32;;;;;;;16.47;13.90;;;4.10;84.50;;;;;;4978395;28;20184;-90
2023/02/23 23:19:59;;;;;;;18.03;14.27;;;4.10;84.60;;;;;;4978258;28;20672;-89
2023/02/23 23:22:26;;;;;;;14.97;13.00;;;4.10;84.70;;;;;;4978898;28;20188;-90
2023/02/23 23:24:52;;;;;;;16.73;15.10;;;4.00;84.80;;;;;;4978065;28;20171;-90
2023/02/23 23:27:22;;;;;;;15.57;14.13;;;4.10;85.00;;;;;;4977920;28;20698;-90
2023/02/23 23:29:47;;;;;;;15.43;13.93;;;4.00;85.00;;;;;;4977366;28;20628;-90
2023/02/23 23:32:15;;;;;;;17.47;15.60;;;4.00;85.20;;;;;;4977732;28;20275;-89
2023/02/23 23:34:52;;;;;;;22.83;18.33;;;4.10;85.40;;;;;;4977724;28;20235;-90
2023/02/23 23:37:18;;;;;;;27.63;20.23;;;4.00;86.10;;;;;;4977799;28;20604;-90
2023/02/23 23:39:44;;;;;;;20.93;17.73;;;4.00;86.60;;;;;;4978102;28;20180;-89
2023/02/23 23:42:10;;;;;;;24.70;17.20;;;4.00;86.60;;;;;;4977990;28;20250;-89
2023/02/23 23:44:36;;;;;;;18.40;16.60;;;4.00;86.60;;;;;;4977371;28;20178;-89
2023/02/23 23:47:04;;;;;;;19.77;17.73;;;4.00;86.90;;;;;;4977443;28;20199;-89
2023/02/23 23:49:37;;;;;;;18.73;16.70;;;4.00;86.90;;;;;;4977376;28;20181;-89
2023/02/23 23:52:03;;;;;;;22.10;16.40;;;4.00;86.90;;;;;;4977330;28;20170;-89
2023/02/23 23:54:32;;;;;;;18.30;16.53;;;4.00;86.70;;;;;;4977409;28;20185;-89
2023/02/23 23:57:01;;;;;;;23.63;15.87;;;3.90;86.20;;;;;;4977520;28;20198;-89
2023/02/23 23:59:27;;;;;;;20.30;16.57;;;4.00;86.30;;;;;;4977232;28;20188;-89
